sensor_id;sensor_type;location;lat;lon;timestamp;P1;durP1;ratioP1;P2;durP2;ratioP2
76749;SDS011;66447;35.844;14.468;2023-03-03T00:41:57;8.18;;;1.75;;
76749;SDS011;66447;35.844;14.468;2023-03-03T00:56:59;11.90;;;1.95;;
76749;SDS011;66447;35.844;14.468;2023-03-03T01:12:00;11.77;;;2.50;;
76749;SDS011;66447;35.844;14.468;2023-03-03T01:27:02;4.97;;;1.47;;
76749;SDS011;66447;35.844;14.468;2023-03-03T01:42:03;9.10;;;2.40;;
76749;SDS011;66447;35.844;14.468;2023-03-03T01:57:05;9.03;;;1.83;;
76749;SDS011;66447;35.844;14.468;2023-03-03T02:12:13;12.57;;;2.05;;
76749;SDS011;66447;35.844;14.468;2023-03-03T02:27:17;8.48;;;1.75;;
76749;SDS011;66447;35.844;14.468;2023-03-03T02:57:23;14.52;;;1.63;;
76749;SDS011;66447;35.844;14.468;2023-03-03T03:12:24;8.13;;;1.60;;
76749;SDS011;66447;35.844;14.468;2023-03-03T03:27:25;12.63;;;1.57;;
76749;SDS011;66447;35.844;14.468;2023-03-03T03:42:26;11.57;;;1.93;;
76749;SDS011;66447;35.844;14.468;2023-03-03T03:57:27;14.00;;;1.60;;
76749;SDS011;66447;35.844;14.468;2023-03-03T04:12:29;14.33;;;2.03;;
76749;SDS011;66447;35.844;14.468;2023-03-03T04:27:35;12.27;;;2.03;;
76749;SDS011;66447;35.844;14.468;2023-03-03T04:42:37;20.50;;;2.10;;
76749;SDS011;66447;35.844;14.468;2023-03-03T04:57:38;14.97;;;2.67;;
76749;SDS011;66447;35.844;14.468;2023-03-03T05:12:39;17.47;;;2.50;;
76749;SDS011;66447;35.844;14.468;2023-03-03T05:27:40;14.60;;;2.00;;
76749;SDS011;66447;35.844;14.468;2023-03-03T05:42:43;11.77;;;1.60;;
76749;SDS011;66447;35.844;14.468;2023-03-03T05:57:45;10.27;;;2.05;;
76749;SDS011;66447;35.844;14.468;2023-03-03T06:12:46;8.23;;;1.37;;
76749;SDS011;66447;35.844;14.468;2023-03-03T06:27:47;10.75;;;2.00;;
76749;SDS011;66447;35.844;14.468;2023-03-03T06:42:49;10.57;;;1.15;;
76749;SDS011;66447;35.844;14.468;2023-03-03T06:57:50;9.50;;;1.60;;
76749;SDS011;66447;35.844;14.468;2023-03-03T07:12:56;16.95;;;1.90;;
76749;SDS011;66447;35.844;14.468;2023-03-03T07:43:30;17.65;;;2.20;;
76749;SDS011;66447;35.844;14.468;2023-03-03T07:58:38;14.38;;;1.95;;
76749;SDS011;66447;35.844;14.468;2023-03-03T08:13:41;13.85;;;2.22;;
76749;SDS011;66447;35.844;14.468;2023-03-03T08:28:43;11.63;;;2.08;;
76749;SDS011;66447;35.844;14.468;2023-03-03T08:43:44;18.50;;;3.78;;
76749;SDS011;66447;35.844;14.468;2023-03-03T08:58:45;13.87;;;2.50;;
76749;SDS011;66447;35.844;14.468;2023-03-03T09:13:47;15.63;;;2.63;;
76749;SDS011;66447;35.844;14.468;2023-03-03T09:28:57;13.82;;;2.20;;
76749;SDS011;66447;35.844;14.468;2023-03-03T11:15:32;11.27;;;2.00;;
76749;SDS011;66447;35.844;14.468;2023-03-03T11:45:53;4.55;;;1.33;;
76749;SDS011;66447;35.844;14.468;2023-03-03T13:17:25;8.43;;;1.40;;
76749;SDS011;66447;35.844;14.468;2023-03-03T13:32:41;7.63;;;1.40;;
76749;SDS011;66447;35.844;14.468;2023-03-03T13:47:59;5.05;;;1.00;;
76749;SDS011;66447;35.844;14.468;2023-03-03T14:03:04;2.92;;;0.90;;
76749;SDS011;66447;35.844;14.468;2023-03-03T14:18:17;3.45;;;0.77;;
76749;SDS011;66447;35.844;14.468;2023-03-03T14:33:28;3.58;;;0.73;;
76749;SDS011;66447;35.844;14.468;2023-03-03T14:48:31;3.95;;;1.00;;
76749;SDS011;66447;35.844;14.468;2023-03-03T15:03:57;4.80;;;1.15;;
76749;SDS011;66447;35.844;14.468;2023-03-03T15:19:09;2.80;;;0.90;;
76749;SDS011;66447;35.844;14.468;2023-03-03T15:34:46;4.90;;;1.10;;
76749;SDS011;66447;35.844;14.468;2023-03-03T16:20:27;6.53;;;1.45;;
76749;SDS011;66447;35.844;14.468;2023-03-03T16:35:50;6.18;;;1.60;;
76749;SDS011;66447;35.844;14.468;2023-03-03T16:51:43;10.35;;;3.13;;
76749;SDS011;66447;35.844;14.468;2023-03-03T18:23:38;8.23;;;2.88;;
76749;SDS011;66447;35.844;14.468;2023-03-03T18:38:44;7.97;;;2.90;;
76749;SDS011;66447;35.844;14.468;2023-03-03T19:09:18;6.57;;;2.40;;
76749;SDS011;66447;35.844;14.468;2023-03-03T20:11:06;7.55;;;2.63;;
76749;SDS011;66447;35.844;14.468;2023-03-03T20:26:41;3.38;;;2.25;;
76749;SDS011;66447;35.844;14.468;2023-03-03T21:12:41;4.13;;;1.88;;
76749;SDS011;66447;35.844;14.468;2023-03-03T21:27:43;9.33;;;2.50;;
76749;SDS011;66447;35.844;14.468;2023-03-03T21:42:44;8.00;;;2.50;;
76749;SDS011;66447;35.844;14.468;2023-03-03T21:57:45;7.57;;;2.33;;
76749;SDS011;66447;35.844;14.468;2023-03-03T22:12:46;5.70;;;2.30;;
76749;SDS011;66447;35.844;14.468;2023-03-03T22:27:48;5.10;;;2.63;;
76749;SDS011;66447;35.844;14.468;2023-03-03T22:42:49;8.77;;;3.57;;
76749;SDS011;66447;35.844;14.468;2023-03-03T22:57:51;4.63;;;2.60;;
76749;SDS011;66447;35.844;14.468;2023-03-03T23:12:52;4.57;;;2.47;;
76749;SDS011;66447;35.844;14.468;2023-03-03T23:27:53;6.83;;;2.30;;
76749;SDS011;66447;35.844;14.468;2023-03-03T23:42:55;6.17;;;2.17;;
76749;SDS011;66447;35.844;14.468;2023-03-03T23:57:56;5.30;;;2.20;;
